sensor_id;sensor_type;location;lat;lon;timestamp;P1;durP1;ratioP1;P2;durP2;ratioP2
75246;SDS011;63844;50.042;19.224;2024-03-02T00:00:00;59.00;;;26.20;;
75246;SDS011;63844;50.042;19.224;2024-03-02T00:01:37;58.70;;;24.30;;
75246;SDS011;63844;50.042;19.224;2024-03-02T00:03:14;56.50;;;26.00;;
75246;SDS011;63844;50.042;19.224;2024-03-02T00:04:50;58.00;;;26.40;;
75246;SDS011;63844;50.042;19.224;2024-03-02T00:06:27;55.50;;;27.00;;
75246;SDS011;63844;50.042;19.224;2024-03-02T00:08:04;55.80;;;24.20;;
75246;SDS011;63844;50.042;19.224;2024-03-02T00:09:41;62.10;;;26.30;;
75246;SDS011;63844;50.042;19.224;2024-03-02T00:11:18;53.10;;;24.40;;
75246;SDS011;63844;50.042;19.224;2024-03-02T00:12:55;56.90;;;25.20;;
75246;SDS011;63844;50.042;19.224;2024-03-02T00:14:35;56.20;;;25.00;;
75246;SDS011;63844;50.042;19.224;2024-03-02T00:16:12;52.80;;;24.10;;
75246;SDS011;63844;50.042;19.224;2024-03-02T00:17:55;48.10;;;20.80;;
75246;SDS011;63844;50.042;19.224;2024-03-02T00:19:32;61.90;;;27.50;;
75246;SDS011;63844;50.042;19.224;2024-03-02T00:21:08;51.50;;;24.70;;
75246;SDS011;63844;50.042;19.224;2024-03-02T00:22:52;62.20;;;27.70;;
75246;SDS011;63844;50.042;19.224;2024-03-02T00:24:39;55.60;;;26.00;;
75246;SDS011;63844;50.042;19.224;2024-03-02T00:26:16;52.30;;;26.20;;
75246;SDS011;63844;50.042;19.224;2024-03-02T00:27:52;59.30;;;24.90;;
75246;SDS011;63844;50.042;19.224;2024-03-02T00:29:29;59.90;;;26.40;;
75246;SDS011;63844;50.042;19.224;2024-03-02T00:31:06;56.30;;;27.10;;
75246;SDS011;63844;50.042;19.224;2024-03-02T00:32:43;54.40;;;25.00;;
75246;SDS011;63844;50.042;19.224;2024-03-02T00:34:20;65.20;;;26.80;;
75246;SDS011;63844;50.042;19.224;2024-03-02T00:35:58;50.70;;;24.40;;
75246;SDS011;63844;50.042;19.224;2024-03-02T00:37:36;55.60;;;26.20;;
75246;SDS011;63844;50.042;19.224;2024-03-02T00:39:12;48.10;;;23.40;;
75246;SDS011;63844;50.042;19.224;2024-03-02T00:40:51;49.00;;;22.80;;
75246;SDS011;63844;50.042;19.224;2024-03-02T00:42:28;47.50;;;22.60;;
75246;SDS011;63844;50.042;19.224;2024-03-02T00:44:06;50.70;;;23.90;;
75246;SDS011;63844;50.042;19.224;2024-03-02T00:45:45;47.60;;;23.70;;
75246;SDS011;63844;50.042;19.224;2024-03-02T00:47:22;53.50;;;23.40;;
75246;SDS011;63844;50.042;19.224;2024-03-02T00:48:59;49.30;;;21.50;;
75246;SDS011;63844;50.042;19.224;2024-03-02T00:50:37;54.20;;;23.20;;
75246;SDS011;63844;50.042;19.224;2024-03-02T00:52:13;48.90;;;22.10;;
75246;SDS011;63844;50.042;19.224;2024-03-02T00:53:53;48.40;;;22.30;;
75246;SDS011;63844;50.042;19.224;2024-03-02T00:57:12;52.50;;;20.70;;
75246;SDS011;63844;50.042;19.224;2024-03-02T00:58:48;49.80;;;24.20;;
75246;SDS011;63844;50.042;19.224;2024-03-02T01:00:26;29.80;;;14.30;;
75246;SDS011;63844;50.042;19.224;2024-03-02T01:02:02;47.30;;;22.00;;
75246;SDS011;63844;50.042;19.224;2024-03-02T01:03:39;47.00;;;20.70;;
75246;SDS011;63844;50.042;19.224;2024-03-02T01:05:17;45.10;;;23.00;;
75246;SDS011;63844;50.042;19.224;2024-03-02T01:06:54;49.20;;;23.80;;
75246;SDS011;63844;50.042;19.224;2024-03-02T01:08:30;42.90;;;21.30;;
75246;SDS011;63844;50.042;19.224;2024-03-02T01:10:07;44.60;;;21.50;;
75246;SDS011;63844;50.042;19.224;2024-03-02T01:11:46;46.50;;;22.60;;
75246;SDS011;63844;50.042;19.224;2024-03-02T01:13:22;52.00;;;22.50;;
75246;SDS011;63844;50.042;19.224;2024-03-02T01:14:59;43.30;;;21.00;;
75246;SDS011;63844;50.042;19.224;2024-03-02T01:16:36;49.00;;;21.60;;
75246;SDS011;63844;50.042;19.224;2024-03-02T01:18:13;48.50;;;21.70;;
75246;SDS011;63844;50.042;19.224;2024-03-02T01:19:49;47.20;;;21.50;;
75246;SDS011;63844;50.042;19.224;2024-03-02T01:21:26;48.00;;;22.20;;
75246;SDS011;63844;50.042;19.224;2024-03-02T01:23:03;44.30;;;21.50;;
75246;SDS011;63844;50.042;19.224;2024-03-02T01:24:39;50.10;;;22.90;;
75246;SDS011;63844;50.042;19.224;2024-03-02T01:26:19;42.40;;;20.90;;
75246;SDS011;63844;50.042;19.224;2024-03-02T01:27:55;43.10;;;20.90;;
75246;SDS011;63844;50.042;19.224;2024-03-02T01:29:32;49.30;;;21.70;;
75246;SDS011;63844;50.042;19.224;2024-03-02T01:31:08;46.30;;;24.00;;
75246;SDS011;63844;50.042;19.224;2024-03-02T01:32:45;49.40;;;22.70;;
75246;SDS011;63844;50.042;19.224;2024-03-02T01:34:21;47.70;;;22.30;;
75246;SDS011;63844;50.042;19.224;2024-03-02T01:35:58;47.20;;;21.50;;
75246;SDS011;63844;50.042;19.224;2024-03-02T01:37:35;43.10;;;21.10;;
75246;SDS011;63844;50.042;19.224;2024-03-02T01:39:11;43.50;;;22.30;;
75246;SDS011;63844;50.042;19.224;2024-03-02T01:40:48;48.40;;;22.40;;
75246;SDS011;63844;50.042;19.224;2024-03-02T01:42:24;44.50;;;20.90;;
75246;SDS011;63844;50.042;19.224;2024-03-02T01:44:00;43.00;;;20.50;;
75246;SDS011;63844;50.042;19.224;2024-03-02T01:45:37;40.50;;;19.60;;
75246;SDS011;63844;50.042;19.224;2024-03-02T01:47:14;45.00;;;22.20;;
75246;SDS011;63844;50.042;19.224;2024-03-02T01:48:50;46.30;;;21.20;;
75246;SDS011;63844;50.042;19.224;2024-03-02T01:50:27;39.90;;;20.20;;
75246;SDS011;63844;50.042;19.224;2024-03-02T01:52:05;43.70;;;20.20;;
75246;SDS011;63844;50.042;19.224;2024-03-02T01:53:42;45.80;;;21.10;;
75246;SDS011;63844;50.042;19.224;2024-03-02T01:55:18;43.60;;;20.00;;
75246;SDS011;63844;50.042;19.224;2024-03-02T01:56:55;45.10;;;21.50;;
75246;SDS011;63844;50.042;19.224;2024-03-02T01:58:32;44.70;;;21.80;;
75246;SDS011;63844;50.042;19.224;2024-03-02T02:00:09;42.70;;;21.30;;
75246;SDS011;63844;50.042;19.224;2024-03-02T02:01:46;44.60;;;20.80;;
75246;SDS011;63844;50.042;19.224;2024-03-02T02:03:22;44.90;;;23.40;;
75246;SDS011;63844;50.042;19.224;2024-03-02T02:04:59;42.60;;;22.50;;
75246;SDS011;63844;50.042;19.224;2024-03-02T02:06:35;42.00;;;20.50;;
75246;SDS011;63844;50.042;19.224;2024-03-02T02:08:12;43.10;;;21.70;;
75246;SDS011;63844;50.042;19.224;2024-03-02T02:09:48;47.70;;;21.90;;
75246;SDS011;63844;50.042;19.224;2024-03-02T02:11:25;41.90;;;20.10;;
75246;SDS011;63844;50.042;19.224;2024-03-02T02:13:01;43.90;;;20.80;;
75246;SDS011;63844;50.042;19.224;2024-03-02T02:14:39;40.80;;;19.70;;
75246;SDS011;63844;50.042;19.224;2024-03-02T02:16:19;42.10;;;19.60;;
75246;SDS011;63844;50.042;19.224;2024-03-02T02:17:56;44.90;;;19.60;;
75246;SDS011;63844;50.042;19.224;2024-03-02T02:19:33;44.60;;;20.70;;
75246;SDS011;63844;50.042;19.224;2024-03-02T02:21:10;46.30;;;21.30;;
75246;SDS011;63844;50.042;19.224;2024-03-02T02:23:02;39.80;;;18.20;;
75246;SDS011;63844;50.042;19.224;2024-03-02T02:24:41;40.40;;;19.20;;
75246;SDS011;63844;50.042;19.224;2024-03-02T02:26:18;43.90;;;19.40;;
75246;SDS011;63844;50.042;19.224;2024-03-02T02:27:55;45.20;;;21.30;;
75246;SDS011;63844;50.042;19.224;2024-03-02T02:29:33;42.50;;;20.90;;
75246;SDS011;63844;50.042;19.224;2024-03-02T02:31:09;43.00;;;20.90;;
75246;SDS011;63844;50.042;19.224;2024-03-02T02:32:46;45.70;;;21.00;;
75246;SDS011;63844;50.042;19.224;2024-03-02T02:34:22;44.40;;;20.80;;
75246;SDS011;63844;50.042;19.224;2024-03-02T02:35:59;45.70;;;20.10;;
75246;SDS011;63844;50.042;19.224;2024-03-02T02:37:36;43.50;;;21.00;;
75246;SDS011;63844;50.042;19.224;2024-03-02T02:39:13;47.50;;;21.00;;
75246;SDS011;63844;50.042;19.224;2024-03-02T02:40:53;46.80;;;19.90;;
75246;SDS011;63844;50.042;19.224;2024-03-02T02:42:29;44.20;;;21.00;;
75246;SDS011;63844;50.042;19.224;2024-03-02T02:44:05;45.50;;;20.50;;
75246;SDS011;63844;50.042;19.224;2024-03-02T02:45:42;41.30;;;20.40;;
75246;SDS011;63844;50.042;19.224;2024-03-02T02:47:19;40.90;;;19.70;;
75246;SDS011;63844;50.042;19.224;2024-03-02T02:48:55;45.40;;;20.80;;
75246;SDS011;63844;50.042;19.224;2024-03-02T02:50:31;44.50;;;19.90;;
75246;SDS011;63844;50.042;19.224;2024-03-02T02:52:08;43.20;;;20.60;;
75246;SDS011;63844;50.042;19.224;2024-03-02T02:53:44;39.70;;;19.90;;
75246;SDS011;63844;50.042;19.224;2024-03-02T02:55:21;37.50;;;20.50;;
75246;SDS011;63844;50.042;19.224;2024-03-02T02:56:57;43.40;;;20.40;;
75246;SDS011;63844;50.042;19.224;2024-03-02T02:58:34;44.50;;;21.00;;
75246;SDS011;63844;50.042;19.224;2024-03-02T03:00:13;47.00;;;21.00;;
75246;SDS011;63844;50.042;19.224;2024-03-02T03:01:52;42.20;;;20.50;;
75246;SDS011;63844;50.042;19.224;2024-03-02T03:03:29;42.60;;;21.30;;
75246;SDS011;63844;50.042;19.224;2024-03-02T03:05:06;37.90;;;18.70;;
75246;SDS011;63844;50.042;19.224;2024-03-02T03:06:44;42.70;;;18.90;;
75246;SDS011;63844;50.042;19.224;2024-03-02T03:08:20;43.70;;;20.80;;
75246;SDS011;63844;50.042;19.224;2024-03-02T03:09:59;41.10;;;19.90;;
75246;SDS011;63844;50.042;19.224;2024-03-02T03:11:36;38.00;;;18.80;;
75246;SDS011;63844;50.042;19.224;2024-03-02T03:13:12;40.10;;;18.70;;
75246;SDS011;63844;50.042;19.224;2024-03-02T03:14:49;40.70;;;18.40;;
75246;SDS011;63844;50.042;19.224;2024-03-02T03:16:25;43.30;;;19.40;;
75246;SDS011;63844;50.042;19.224;2024-03-02T03:18:02;40.70;;;19.60;;
75246;SDS011;63844;50.042;19.224;2024-03-02T03:19:44;40.20;;;19.00;;
75246;SDS011;63844;50.042;19.224;2024-03-02T03:21:20;42.90;;;19.90;;
75246;SDS011;63844;50.042;19.224;2024-03-02T03:22:57;37.70;;;18.50;;
75246;SDS011;63844;50.042;19.224;2024-03-02T03:24:34;39.10;;;18.30;;
75246;SDS011;63844;50.042;19.224;2024-03-02T03:26:10;39.40;;;18.40;;
75246;SDS011;63844;50.042;19.224;2024-03-02T03:27:47;42.30;;;20.20;;
75246;SDS011;63844;50.042;19.224;2024-03-02T03:29:23;34.80;;;17.80;;
75246;SDS011;63844;50.042;19.224;2024-03-02T03:31:00;36.60;;;19.00;;
75246;SDS011;63844;50.042;19.224;2024-03-02T03:32:36;39.00;;;16.90;;
75246;SDS011;63844;50.042;19.224;2024-03-02T03:34:13;38.40;;;17.60;;
75246;SDS011;63844;50.042;19.224;2024-03-02T03:35:52;40.00;;;18.70;;
75246;SDS011;63844;50.042;19.224;2024-03-02T03:37:29;37.10;;;18.60;;
75246;SDS011;63844;50.042;19.224;2024-03-02T03:39:09;41.00;;;19.30;;
75246;SDS011;63844;50.042;19.224;2024-03-02T03:40:46;42.80;;;19.00;;
75246;SDS011;63844;50.042;19.224;2024-03-02T03:42:23;36.90;;;18.70;;
75246;SDS011;63844;50.042;19.224;2024-03-02T03:44:00;39.20;;;18.30;;
75246;SDS011;63844;50.042;19.224;2024-03-02T03:45:36;36.90;;;17.80;;
75246;SDS011;63844;50.042;19.224;2024-03-02T03:47:13;36.00;;;17.40;;
75246;SDS011;63844;50.042;19.224;2024-03-02T03:48:49;39.30;;;20.10;;
75246;SDS011;63844;50.042;19.224;2024-03-02T03:50:26;39.60;;;17.60;;
75246;SDS011;63844;50.042;19.224;2024-03-02T03:52:02;42.50;;;19.60;;
75246;SDS011;63844;50.042;19.224;2024-03-02T03:53:40;39.90;;;18.20;;
75246;SDS011;63844;50.042;19.224;2024-03-02T03:55:16;35.80;;;18.50;;
75246;SDS011;63844;50.042;19.224;2024-03-02T03:56:53;37.90;;;19.30;;
75246;SDS011;63844;50.042;19.224;2024-03-02T03:58:29;38.10;;;18.30;;
75246;SDS011;63844;50.042;19.224;2024-03-02T04:00:06;35.10;;;18.10;;
75246;SDS011;63844;50.042;19.224;2024-03-02T04:01:43;34.00;;;17.60;;
75246;SDS011;63844;50.042;19.224;2024-03-02T04:03:20;42.40;;;20.50;;
75246;SDS011;63844;50.042;19.224;2024-03-02T04:04:56;34.50;;;16.00;;
75246;SDS011;63844;50.042;19.224;2024-03-02T04:06:33;38.00;;;18.50;;
75246;SDS011;63844;50.042;19.224;2024-03-02T04:08:09;40.00;;;18.50;;
75246;SDS011;63844;50.042;19.224;2024-03-02T04:09:47;41.10;;;20.40;;
75246;SDS011;63844;50.042;19.224;2024-03-02T04:11:24;36.30;;;18.90;;
75246;SDS011;63844;50.042;19.224;2024-03-02T04:13:00;39.00;;;18.40;;
75246;SDS011;63844;50.042;19.224;2024-03-02T04:14:37;44.00;;;19.30;;
75246;SDS011;63844;50.042;19.224;2024-03-02T04:16:14;38.80;;;19.80;;
75246;SDS011;63844;50.042;19.224;2024-03-02T04:17:50;41.10;;;18.40;;
75246;SDS011;63844;50.042;19.224;2024-03-02T04:19:27;40.50;;;18.40;;
75246;SDS011;63844;50.042;19.224;2024-03-02T04:21:03;37.40;;;18.30;;
75246;SDS011;63844;50.042;19.224;2024-03-02T04:22:40;36.80;;;17.70;;
75246;SDS011;63844;50.042;19.224;2024-03-02T04:24:16;39.10;;;18.40;;
75246;SDS011;63844;50.042;19.224;2024-03-02T04:25:53;40.10;;;19.90;;
75246;SDS011;63844;50.042;19.224;2024-03-02T04:27:30;42.00;;;19.30;;
75246;SDS011;63844;50.042;19.224;2024-03-02T04:29:08;38.50;;;17.80;;
75246;SDS011;63844;50.042;19.224;2024-03-02T04:30:45;42.20;;;19.10;;
75246;SDS011;63844;50.042;19.224;2024-03-02T04:32:21;40.00;;;19.50;;
75246;SDS011;63844;50.042;19.224;2024-03-02T04:33:58;41.50;;;19.60;;
75246;SDS011;63844;50.042;19.224;2024-03-02T04:35:34;37.80;;;19.50;;
75246;SDS011;63844;50.042;19.224;2024-03-02T04:37:11;38.70;;;19.00;;
75246;SDS011;63844;50.042;19.224;2024-03-02T04:38:48;35.20;;;16.80;;
75246;SDS011;63844;50.042;19.224;2024-03-02T04:40:25;36.20;;;18.60;;
75246;SDS011;63844;50.042;19.224;2024-03-02T04:42:02;41.40;;;19.70;;
75246;SDS011;63844;50.042;19.224;2024-03-02T04:43:39;39.30;;;18.60;;
75246;SDS011;63844;50.042;19.224;2024-03-02T04:45:15;39.70;;;19.70;;
75246;SDS011;63844;50.042;19.224;2024-03-02T04:46:51;44.20;;;18.90;;
75246;SDS011;63844;50.042;19.224;2024-03-02T04:48:28;46.30;;;20.20;;
75246;SDS011;63844;50.042;19.224;2024-03-02T04:50:05;43.40;;;19.00;;
75246;SDS011;63844;50.042;19.224;2024-03-02T04:51:43;39.50;;;20.40;;
75246;SDS011;63844;50.042;19.224;2024-03-02T04:53:20;43.20;;;19.40;;
75246;SDS011;63844;50.042;19.224;2024-03-02T04:54:56;41.50;;;19.50;;
75246;SDS011;63844;50.042;19.224;2024-03-02T04:56:51;47.10;;;21.60;;
75246;SDS011;63844;50.042;19.224;2024-03-02T04:58:28;41.40;;;20.90;;
75246;SDS011;63844;50.042;19.224;2024-03-02T05:00:04;44.10;;;20.90;;
75246;SDS011;63844;50.042;19.224;2024-03-02T05:01:43;35.40;;;18.30;;
75246;SDS011;63844;50.042;19.224;2024-03-02T05:03:20;49.60;;;21.20;;
75246;SDS011;63844;50.042;19.224;2024-03-02T05:04:56;44.40;;;20.40;;
75246;SDS011;63844;50.042;19.224;2024-03-02T05:06:33;41.00;;;20.10;;
75246;SDS011;63844;50.042;19.224;2024-03-02T05:08:09;47.00;;;20.30;;
75246;SDS011;63844;50.042;19.224;2024-03-02T05:09:48;42.20;;;20.20;;
75246;SDS011;63844;50.042;19.224;2024-03-02T05:11:24;36.10;;;18.30;;
75246;SDS011;63844;50.042;19.224;2024-03-02T05:13:13;42.30;;;20.40;;
75246;SDS011;63844;50.042;19.224;2024-03-02T05:14:49;44.90;;;20.50;;
75246;SDS011;63844;50.042;19.224;2024-03-02T05:16:26;43.20;;;21.00;;
75246;SDS011;63844;50.042;19.224;2024-03-02T05:18:03;42.90;;;20.00;;
75246;SDS011;63844;50.042;19.224;2024-03-02T05:19:41;43.70;;;20.10;;
75246;SDS011;63844;50.042;19.224;2024-03-02T05:21:18;42.90;;;20.70;;
75246;SDS011;63844;50.042;19.224;2024-03-02T05:22:54;45.20;;;22.20;;
75246;SDS011;63844;50.042;19.224;2024-03-02T05:24:31;42.90;;;20.50;;
75246;SDS011;63844;50.042;19.224;2024-03-02T05:26:07;41.60;;;21.10;;
75246;SDS011;63844;50.042;19.224;2024-03-02T05:27:44;40.30;;;19.80;;
75246;SDS011;63844;50.042;19.224;2024-03-02T05:29:21;40.10;;;19.60;;
75246;SDS011;63844;50.042;19.224;2024-03-02T05:30:57;41.40;;;20.10;;
75246;SDS011;63844;50.042;19.224;2024-03-02T05:32:34;41.20;;;20.10;;
75246;SDS011;63844;50.042;19.224;2024-03-02T05:34:10;45.40;;;20.50;;
75246;SDS011;63844;50.042;19.224;2024-03-02T05:35:47;42.70;;;20.10;;
75246;SDS011;63844;50.042;19.224;2024-03-02T05:37:23;41.40;;;19.50;;
75246;SDS011;63844;50.042;19.224;2024-03-02T05:39:00;40.00;;;19.10;;
75246;SDS011;63844;50.042;19.224;2024-03-02T05:40:37;36.30;;;19.30;;
75246;SDS011;63844;50.042;19.224;2024-03-02T05:42:13;43.10;;;20.70;;
75246;SDS011;63844;50.042;19.224;2024-03-02T05:43:50;40.50;;;19.00;;
75246;SDS011;63844;50.042;19.224;2024-03-02T05:45:27;42.50;;;20.90;;
75246;SDS011;63844;50.042;19.224;2024-03-02T05:47:04;38.10;;;19.30;;
75246;SDS011;63844;50.042;19.224;2024-03-02T05:48:40;43.80;;;20.30;;
75246;SDS011;63844;50.042;19.224;2024-03-02T05:50:17;35.40;;;16.40;;
75246;SDS011;63844;50.042;19.224;2024-03-02T05:51:56;45.10;;;21.40;;
75246;SDS011;63844;50.042;19.224;2024-03-02T05:53:32;40.40;;;19.90;;
75246;SDS011;63844;50.042;19.224;2024-03-02T05:55:09;38.90;;;19.70;;
75246;SDS011;63844;50.042;19.224;2024-03-02T05:56:46;43.10;;;21.20;;
75246;SDS011;63844;50.042;19.224;2024-03-02T05:58:22;42.30;;;19.80;;
75246;SDS011;63844;50.042;19.224;2024-03-02T06:00:18;36.60;;;17.90;;
75246;SDS011;63844;50.042;19.224;2024-03-02T06:01:54;41.80;;;21.60;;
75246;SDS011;63844;50.042;19.224;2024-03-02T06:03:31;43.60;;;20.50;;
75246;SDS011;63844;50.042;19.224;2024-03-02T06:05:07;39.80;;;19.70;;
75246;SDS011;63844;50.042;19.224;2024-03-02T06:06:45;36.80;;;18.20;;
75246;SDS011;63844;50.042;19.224;2024-03-02T06:08:21;41.20;;;19.00;;
75246;SDS011;63844;50.042;19.224;2024-03-02T06:09:58;43.00;;;19.60;;
75246;SDS011;63844;50.042;19.224;2024-03-02T06:11:35;39.40;;;19.90;;
75246;SDS011;63844;50.042;19.224;2024-03-02T06:13:12;39.50;;;20.50;;
75246;SDS011;63844;50.042;19.224;2024-03-02T06:14:49;40.90;;;19.60;;
75246;SDS011;63844;50.042;19.224;2024-03-02T06:16:25;35.60;;;19.60;;
75246;SDS011;63844;50.042;19.224;2024-03-02T06:18:02;40.20;;;19.80;;
75246;SDS011;63844;50.042;19.224;2024-03-02T06:19:39;42.70;;;21.00;;
75246;SDS011;63844;50.042;19.224;2024-03-02T06:21:16;41.40;;;20.90;;
75246;SDS011;63844;50.042;19.224;2024-03-02T06:22:54;38.90;;;19.20;;
75246;SDS011;63844;50.042;19.224;2024-03-02T06:24:32;40.10;;;19.50;;
75246;SDS011;63844;50.042;19.224;2024-03-02T06:26:08;42.80;;;20.20;;
75246;SDS011;63844;50.042;19.224;2024-03-02T06:27:45;35.20;;;17.90;;
75246;SDS011;63844;50.042;19.224;2024-03-02T06:29:21;38.10;;;18.70;;
75246;SDS011;63844;50.042;19.224;2024-03-02T06:30:58;41.90;;;19.80;;
75246;SDS011;63844;50.042;19.224;2024-03-02T06:32:34;34.10;;;18.50;;
75246;SDS011;63844;50.042;19.224;2024-03-02T06:34:11;36.60;;;18.30;;
75246;SDS011;63844;50.042;19.224;2024-03-02T06:35:48;44.10;;;18.00;;
75246;SDS011;63844;50.042;19.224;2024-03-02T06:37:25;42.00;;;20.60;;
75246;SDS011;63844;50.042;19.224;2024-03-02T06:39:01;39.00;;;21.00;;
75246;SDS011;63844;50.042;19.224;2024-03-02T06:40:38;34.90;;;18.80;;
75246;SDS011;63844;50.042;19.224;2024-03-02T06:42:15;40.40;;;19.60;;
75246;SDS011;63844;50.042;19.224;2024-03-02T06:43:52;41.40;;;21.30;;
75246;SDS011;63844;50.042;19.224;2024-03-02T06:45:35;39.70;;;19.50;;
75246;SDS011;63844;50.042;19.224;2024-03-02T06:47:12;36.00;;;18.90;;
75246;SDS011;63844;50.042;19.224;2024-03-02T06:48:48;37.20;;;19.40;;
75246;SDS011;63844;50.042;19.224;2024-03-02T06:50:25;38.40;;;18.20;;
75246;SDS011;63844;50.042;19.224;2024-03-02T06:52:01;38.30;;;19.10;;
75246;SDS011;63844;50.042;19.224;2024-03-02T06:53:38;37.80;;;19.90;;
75246;SDS011;63844;50.042;19.224;2024-03-02T06:55:14;42.10;;;20.00;;
75246;SDS011;63844;50.042;19.224;2024-03-02T06:56:51;41.90;;;20.30;;
75246;SDS011;63844;50.042;19.224;2024-03-02T06:58:27;37.40;;;18.20;;
75246;SDS011;63844;50.042;19.224;2024-03-02T07:00:04;40.50;;;19.40;;
75246;SDS011;63844;50.042;19.224;2024-03-02T07:01:41;39.70;;;20.20;;
75246;SDS011;63844;50.042;19.224;2024-03-02T07:03:19;38.00;;;19.90;;
75246;SDS011;63844;50.042;19.224;2024-03-02T07:04:56;40.60;;;19.80;;
75246;SDS011;63844;50.042;19.224;2024-03-02T07:06:32;42.50;;;20.60;;
75246;SDS011;63844;50.042;19.224;2024-03-02T07:08:09;37.70;;;19.80;;
75246;SDS011;63844;50.042;19.224;2024-03-02T07:09:45;38.50;;;20.10;;
75246;SDS011;63844;50.042;19.224;2024-03-02T07:11:22;40.30;;;19.50;;
75246;SDS011;63844;50.042;19.224;2024-03-02T07:12:58;41.10;;;20.90;;
75246;SDS011;63844;50.042;19.224;2024-03-02T07:14:35;40.30;;;20.90;;
75246;SDS011;63844;50.042;19.224;2024-03-02T07:16:33;40.40;;;20.40;;
75246;SDS011;63844;50.042;19.224;2024-03-02T07:18:10;38.30;;;19.90;;
75246;SDS011;63844;50.042;19.224;2024-03-02T07:19:47;42.50;;;20.40;;
75246;SDS011;63844;50.042;19.224;2024-03-02T07:21:24;37.30;;;18.50;;
75246;SDS011;63844;50.042;19.224;2024-03-02T07:23:01;48.00;;;22.10;;
75246;SDS011;63844;50.042;19.224;2024-03-02T07:24:40;45.10;;;21.40;;
75246;SDS011;63844;50.042;19.224;2024-03-02T07:26:17;44.50;;;22.10;;
75246;SDS011;63844;50.042;19.224;2024-03-02T07:27:55;40.30;;;21.70;;
75246;SDS011;63844;50.042;19.224;2024-03-02T07:29:32;49.40;;;22.90;;
75246;SDS011;63844;50.042;19.224;2024-03-02T07:31:08;42.30;;;21.50;;
75246;SDS011;63844;50.042;19.224;2024-03-02T07:32:46;42.20;;;22.10;;
75246;SDS011;63844;50.042;19.224;2024-03-02T07:34:22;43.70;;;23.20;;
75246;SDS011;63844;50.042;19.224;2024-03-02T07:36:00;40.50;;;21.20;;
75246;SDS011;63844;50.042;19.224;2024-03-02T07:37:38;42.70;;;22.10;;
75246;SDS011;63844;50.042;19.224;2024-03-02T07:39:14;42.90;;;23.70;;
75246;SDS011;63844;50.042;19.224;2024-03-02T07:40:52;48.20;;;23.70;;
75246;SDS011;63844;50.042;19.224;2024-03-02T07:42:29;44.30;;;21.20;;
75246;SDS011;63844;50.042;19.224;2024-03-02T07:44:06;48.00;;;22.20;;
75246;SDS011;63844;50.042;19.224;2024-03-02T07:45:42;43.50;;;20.20;;
75246;SDS011;63844;50.042;19.224;2024-03-02T07:47:19;43.10;;;22.40;;
75246;SDS011;63844;50.042;19.224;2024-03-02T07:48:56;44.60;;;22.70;;
75246;SDS011;63844;50.042;19.224;2024-03-02T07:50:32;46.50;;;22.80;;
75246;SDS011;63844;50.042;19.224;2024-03-02T07:52:11;42.50;;;20.80;;
75246;SDS011;63844;50.042;19.224;2024-03-02T07:53:47;43.80;;;23.20;;
75246;SDS011;63844;50.042;19.224;2024-03-02T07:55:24;41.10;;;20.80;;
75246;SDS011;63844;50.042;19.224;2024-03-02T07:57:01;47.80;;;22.20;;
75246;SDS011;63844;50.042;19.224;2024-03-02T07:58:37;40.80;;;19.40;;
75246;SDS011;63844;50.042;19.224;2024-03-02T08:00:14;43.70;;;22.50;;
75246;SDS011;63844;50.042;19.224;2024-03-02T08:01:51;40.80;;;22.90;;
75246;SDS011;63844;50.042;19.224;2024-03-02T08:03:28;42.50;;;21.80;;
75246;SDS011;63844;50.042;19.224;2024-03-02T08:05:05;41.30;;;22.60;;
75246;SDS011;63844;50.042;19.224;2024-03-02T08:06:42;42.70;;;22.30;;
75246;SDS011;63844;50.042;19.224;2024-03-02T08:08:19;40.90;;;20.20;;
75246;SDS011;63844;50.042;19.224;2024-03-02T08:09:55;43.10;;;22.80;;
75246;SDS011;63844;50.042;19.224;2024-03-02T08:11:32;49.40;;;24.70;;
75246;SDS011;63844;50.042;19.224;2024-03-02T08:13:11;41.80;;;20.70;;
75246;SDS011;63844;50.042;19.224;2024-03-02T08:14:47;42.20;;;20.30;;
75246;SDS011;63844;50.042;19.224;2024-03-02T08:16:24;43.00;;;22.20;;
75246;SDS011;63844;50.042;19.224;2024-03-02T08:18:01;40.40;;;21.10;;
75246;SDS011;63844;50.042;19.224;2024-03-02T08:19:38;41.10;;;21.30;;
75246;SDS011;63844;50.042;19.224;2024-03-02T08:21:14;42.50;;;22.90;;
75246;SDS011;63844;50.042;19.224;2024-03-02T08:22:51;40.80;;;22.40;;
75246;SDS011;63844;50.042;19.224;2024-03-02T08:24:31;42.80;;;22.40;;
75246;SDS011;63844;50.042;19.224;2024-03-02T08:26:08;43.80;;;22.70;;
75246;SDS011;63844;50.042;19.224;2024-03-02T08:27:45;41.10;;;22.40;;
75246;SDS011;63844;50.042;19.224;2024-03-02T08:29:22;47.00;;;23.30;;
75246;SDS011;63844;50.042;19.224;2024-03-02T08:30:58;44.70;;;23.10;;
75246;SDS011;63844;50.042;19.224;2024-03-02T08:32:35;45.10;;;23.00;;
75246;SDS011;63844;50.042;19.224;2024-03-02T08:34:11;37.00;;;21.10;;
75246;SDS011;63844;50.042;19.224;2024-03-02T08:35:48;40.30;;;21.00;;
75246;SDS011;63844;50.042;19.224;2024-03-02T08:37:24;43.20;;;21.60;;
75246;SDS011;63844;50.042;19.224;2024-03-02T08:39:01;40.40;;;20.80;;
75246;SDS011;63844;50.042;19.224;2024-03-02T08:40:39;40.40;;;20.40;;
75246;SDS011;63844;50.042;19.224;2024-03-02T08:42:15;38.10;;;20.30;;
75246;SDS011;63844;50.042;19.224;2024-03-02T08:43:53;40.60;;;20.90;;
75246;SDS011;63844;50.042;19.224;2024-03-02T08:45:30;46.30;;;23.40;;
75246;SDS011;63844;50.042;19.224;2024-03-02T08:47:07;41.50;;;21.60;;
75246;SDS011;63844;50.042;19.224;2024-03-02T08:48:43;41.00;;;21.90;;
75246;SDS011;63844;50.042;19.224;2024-03-02T08:50:20;39.80;;;21.80;;
75246;SDS011;63844;50.042;19.224;2024-03-02T08:51:56;38.70;;;22.30;;
75246;SDS011;63844;50.042;19.224;2024-03-02T08:53:33;44.30;;;22.50;;
75246;SDS011;63844;50.042;19.224;2024-03-02T08:55:10;48.10;;;22.90;;
75246;SDS011;63844;50.042;19.224;2024-03-02T08:56:48;46.50;;;23.40;;
75246;SDS011;63844;50.042;19.224;2024-03-02T08:58:25;53.10;;;23.90;;
75246;SDS011;63844;50.042;19.224;2024-03-02T09:00:01;86.50;;;25.60;;
75246;SDS011;63844;50.042;19.224;2024-03-02T09:01:39;69.10;;;23.70;;
75246;SDS011;63844;50.042;19.224;2024-03-02T09:03:17;50.00;;;23.10;;
75246;SDS011;63844;50.042;19.224;2024-03-02T09:04:54;46.40;;;22.10;;
75246;SDS011;63844;50.042;19.224;2024-03-02T09:06:31;41.80;;;22.10;;
75246;SDS011;63844;50.042;19.224;2024-03-02T09:08:07;45.50;;;21.00;;
75246;SDS011;63844;50.042;19.224;2024-03-02T09:09:44;44.00;;;22.80;;
75246;SDS011;63844;50.042;19.224;2024-03-02T09:11:20;40.30;;;20.60;;
75246;SDS011;63844;50.042;19.224;2024-03-02T09:12:57;37.80;;;19.80;;
75246;SDS011;63844;50.042;19.224;2024-03-02T09:14:35;37.60;;;18.70;;
75246;SDS011;63844;50.042;19.224;2024-03-02T09:16:13;38.10;;;19.70;;
75246;SDS011;63844;50.042;19.224;2024-03-02T09:17:49;39.50;;;19.90;;
75246;SDS011;63844;50.042;19.224;2024-03-02T09:19:26;38.60;;;19.90;;
75246;SDS011;63844;50.042;19.224;2024-03-02T09:21:03;34.80;;;18.50;;